Time;durP1;ratioP1;P1;durP2;ratioP2;P2;SDS_P1;SDS_P2;PMS_P1;PMS_P2;Temp;Humidity;BMP_temperature;BMP_pressure;BME280_temperature;BME280_humidity;BME280_pressure;Samples;Min_cycle;Max_cycle;Signal;HPM_P1;HPM_P2
2021/11/16 00:02:42;;;;;;;71.20;38.42;;;;;;;3.12;77.42;98613.56;10128315;29;20484;-80
2021/11/16 00:08:03;;;;;;;64.35;35.92;;;;;;;3.11;77.50;98615.56;10115215;29;20052;-80
2021/11/16 00:13:24;;;;;;;67.90;37.42;;;;;;;3.22;77.70;98603.63;10128725;29;20490;-80
2021/11/16 00:18:50;;;;;;;66.43;37.17;;;;;;;3.37;77.71;98595.59;10127988;29;20484;-80
2021/11/16 00:24:25;;;;;;;68.15;37.50;;;;;;;3.42;77.48;98605.09;10128635;29;20684;-80
2021/11/16 00:29:46;;;;;;;66.50;36.58;;;;;;;3.35;77.54;98606.44;10140729;29;20049;-80
2021/11/16 00:35:08;;;;;;;70.45;38.30;;;;;;;3.36;77.80;98607.91;10127170;29;20049;-79
2021/11/16 00:40:29;;;;;;;64.50;37.22;;;;;;;3.40;77.63;98604.88;10127188;29;20571;-79
2021/11/16 00:45:50;;;;;;;60.03;35.45;;;;;;;3.33;77.71;98599.94;10139871;29;20492;-80
2021/11/16 00:51:12;;;;;;;63.65;35.58;;;;;;;3.28;77.92;98601.53;10127432;29;20075;-80
2021/11/16 00:56:33;;;;;;;62.15;34.63;;;;;;;3.24;78.00;98587.28;10114256;29;20448;-79
2021/11/16 01:01:54;;;;;;;60.13;34.45;;;;;;;3.24;77.86;98589.31;10125418;29;20500;-79
2021/11/16 01:07:16;;;;;;;62.00;35.05;;;;;;;3.44;78.04;98586.72;10126614;29;20041;-80
2021/11/16 01:12:40;;;;;;;62.67;36.10;;;;;;;3.69;78.10;98592.84;10112634;29;20128;-79
2021/11/16 01:18:02;;;;;;;63.85;36.42;;;;;;;3.90;78.06;98584.69;10119483;29;20135;-79
2021/11/16 01:23:24;;;;;;;63.38;34.15;;;;;;;4.04;77.78;98579.91;10123794;29;20168;-79
2021/11/16 01:28:45;;;;;;;62.25;36.17;;;;;;;4.12;77.44;98585.56;10123422;29;20112;-80
2021/11/16 01:34:07;;;;;;;60.83;35.10;;;;;;;4.13;77.42;98581.53;10113262;29;20037;-79
2021/11/16 01:39:28;;;;;;;55.92;33.88;;;;;;;4.24;77.55;98576.53;10106383;29;20040;-78
2021/11/16 01:44:50;;;;;;;61.92;34.47;;;;;;;4.34;77.42;98578.84;10118614;29;20063;-79
2021/11/16 01:50:12;;;;;;;57.08;33.97;;;;;;;4.40;77.35;98562.91;10120854;29;20048;-79
2021/11/16 01:55:33;;;;;;;62.03;34.33;;;;;;;4.46;77.09;98552.50;10109461;29;20403;-80
2021/11/16 02:00:54;;;;;;;57.75;34.85;;;;;;;4.53;77.41;98547.03;10148034;29;20047;-80
2021/11/16 02:06:24;;;;;;;60.83;34.92;;;;;;;4.58;77.31;98554.50;10107954;29;20429;-79
2021/11/16 02:11:46;;;;;;;54.63;31.63;;;;;;;4.62;77.63;98540.34;10122388;29;20536;-79
2021/11/16 02:17:07;;;;;;;57.55;33.22;;;;;;;4.73;77.70;98536.56;10117605;29;20397;-79
2021/11/16 02:22:29;;;;;;;56.65;32.85;;;;;;;4.79;77.67;98535.19;10131978;29;20112;-79
2021/11/16 02:27:50;;;;;;;61.38;33.45;;;;;;;4.85;77.52;98537.84;10103962;29;20067;-80
2021/11/16 02:33:12;;;;;;;52.28;30.60;;;;;;;4.87;77.42;98526.97;10130712;29;20133;-78
2021/11/16 02:38:34;;;;;;;55.20;32.70;;;;;;;4.87;77.84;98524.94;10120776;29;20048;-80
2021/11/16 02:43:56;;;;;;;56.50;31.45;;;;;;;4.84;77.51;98526.03;10119599;29;20404;-80
2021/11/16 02:49:18;;;;;;;53.90;31.20;;;;;;;4.82;77.40;98516.75;10120499;29;20449;-80
2021/11/16 02:54:40;;;;;;;52.95;30.63;;;;;;;4.84;78.17;98514.97;10119368;29;20502;-79
2021/11/16 03:00:04;;;;;;;51.67;29.55;;;;;;;4.96;77.88;98503.63;10122712;29;20104;-79
2021/11/16 03:05:35;;;;;;;51.93;30.77;;;;;;;4.98;77.84;98510.13;10122666;29;20040;-79
2021/11/16 03:10:58;;;;;;;54.78;30.67;;;;;;;5.03;77.73;98502.97;10135326;29;20377;-79
2021/11/16 03:16:23;;;;;;;49.63;29.55;;;;;;;4.99;77.75;98500.53;10122953;29;20511;-79
2021/11/16 03:21:53;;;;;;;51.13;29.85;;;;;;;5.01;77.64;98505.53;10121842;29;20060;-80
2021/11/16 03:27:16;;;;;;;51.25;28.85;;;;;;;5.04;77.70;98507.22;10127199;29;20395;-80
2021/11/16 03:32:36;;;;;;;53.15;29.95;;;;;;;5.00;77.59;98504.78;10143697;29;20444;-80
2021/11/16 03:37:59;;;;;;;52.50;29.25;;;;;;;5.04;77.46;98504.47;10117190;29;20501;-80
2021/11/16 03:43:20;;;;;;;52.35;29.40;;;;;;;5.06;77.41;98504.66;10129990;29;20103;-79
2021/11/16 03:48:42;;;;;;;50.45;29.02;;;;;;;5.00;77.72;98499.25;10142474;29;20048;-80
2021/11/16 03:54:03;;;;;;;50.03;28.08;;;;;;;4.99;77.91;98497.03;10129281;29;20476;-80
2021/11/16 03:59:25;;;;;;;46.88;27.15;;;;;;;5.01;77.66;98491.69;10129129;29;20044;-78
2021/11/16 04:04:48;;;;;;;49.42;28.10;;;;;;;5.04;77.83;98490.63;10128969;29;20111;-79
2021/11/16 04:10:13;;;;;;;52.45;29.65;;;;;;;5.03;77.58;98495.41;10141743;29;20056;-80
2021/11/16 04:15:35;;;;;;;50.83;30.02;;;;;;;5.01;77.61;98486.16;10129175;29;20045;-80
2021/11/16 04:20:57;;;;;;;52.58;29.85;;;;;;;4.97;77.66;98485.75;10127891;29;20072;-81
2021/11/16 04:26:18;;;;;;;50.88;29.83;;;;;;;5.01;77.77;98486.88;10126238;29;20049;-80
2021/11/16 04:31:39;;;;;;;50.88;29.15;;;;;;;5.04;77.72;98485.09;10127498;29;20060;-78
2021/11/16 04:37:00;;;;;;;51.83;29.75;;;;;;;5.07;78.05;98484.75;10125186;29;20052;-79
2021/11/16 04:42:23;;;;;;;48.58;28.25;;;;;;;5.08;77.94;98480.69;10127055;29;20136;-81
2021/11/16 04:47:51;;;;;;;49.15;29.08;;;;;;;5.05;77.74;98481.78;10128741;29;20049;-79
2021/11/16 05:04:22;;;;;;;47.40;27.65;;;;;;;5.00;78.15;98487.44;10118136;29;20416;-79
2021/11/16 05:09:54;;;;;;;47.88;27.98;;;;;;;5.00;77.84;98481.91;10126251;29;20183;-79
2021/11/16 05:15:16;;;;;;;49.53;28.73;;;;;;;5.02;78.30;98477.34;10113634;29;20083;-79
2021/11/16 05:20:37;;;;;;;49.97;29.00;;;;;;;5.08;78.26;98477.19;10074662;29;20088;-79
2021/11/16 05:25:59;;;;;;;51.80;28.80;;;;;;;5.12;78.04;98488.69;10087315;29;20052;-79
2021/11/16 05:31:21;;;;;;;46.40;27.55;;;;;;;5.14;78.42;98484.06;10087867;29;20128;-79
2021/11/16 05:36:43;;;;;;;47.03;26.83;;;;;;;5.16;78.50;98480.75;10099976;29;20049;-79
2021/11/16 05:42:04;;;;;;;49.17;29.58;;;;;;;5.19;78.25;98476.91;10086976;29;20079;-79
2021/11/16 05:47:25;;;;;;;46.28;28.02;;;;;;;5.17;78.36;98487.78;10086724;29;20112;-79
2021/11/16 05:52:46;;;;;;;45.95;27.80;;;;;;;5.19;78.61;98487.97;10094771;29;20135;-79
2021/11/16 05:58:08;;;;;;;50.00;28.73;;;;;;;5.23;78.16;98484.88;10124853;29;20048;-79
2021/11/16 06:03:29;;;;;;;49.42;29.20;;;;;;;5.20;78.68;98489.47;10124582;29;20119;-79
2021/11/16 06:08:52;;;;;;;54.50;30.83;;;;;;;5.14;78.48;98483.34;10111525;29;20119;-81
2021/11/16 06:14:13;;;;;;;50.67;29.00;;;;;;;5.10;78.85;98480.16;10136742;29;20045;-80
2021/11/16 06:19:35;;;;;;;50.50;29.25;;;;;;;5.09;78.75;98484.19;10114067;29;20072;-82
2021/11/16 06:24:56;;;;;;;49.47;28.27;;;;;;;5.10;79.62;98489.19;10124312;29;20127;-79
2021/11/16 06:30:17;;;;;;;49.22;28.13;;;;;;;5.14;79.47;98491.63;10113945;29;20073;-80
2021/11/16 06:35:38;;;;;;;50.17;29.63;;;;;;;5.14;79.71;98497.91;10144914;29;20032;-80
2021/11/16 06:40:59;;;;;;;47.60;27.55;;;;;;;5.22;79.94;98503.53;10120149;29;20108;-80
2021/11/16 06:46:20;;;;;;;47.50;27.77;;;;;;;5.31;79.47;98503.06;10134810;29;20044;-82
2021/11/16 06:51:43;;;;;;;47.17;27.45;;;;;;;5.40;79.54;98505.34;10165234;23;20060;-80
2021/11/16 06:57:04;;;;;;;49.13;29.42;;;;;;;5.46;79.36;98500.38;10152188;29;20055;-81
2021/11/16 07:02:26;;;;;;;50.45;28.73;;;;;;;5.54;79.20;98508.75;10148543;29;20053;-80
2021/11/16 07:07:48;;;;;;;47.05;28.08;;;;;;;5.58;79.24;98500.84;10125387;29;20043;-82
2021/11/16 07:13:10;;;;;;;49.38;28.75;;;;;;;5.72;78.79;98509.81;11284549;23;20059;-82
2021/11/16 07:18:51;;;;;;;49.30;28.38;;;;;;;5.78;79.08;98502.09;10476098;23;20470;-82
2021/11/16 07:24:17;;;;;;;51.17;28.52;;;;;;;5.94;78.56;98503.69;11067652;23;20041;-82
2021/11/16 07:29:51;;;;;;;50.30;28.25;;;;;;;5.92;78.41;98514.59;10594412;23;20033;-84
2021/11/16 07:35:15;;;;;;;52.13;29.20;;;;;;;5.91;78.54;98499.25;10239315;24;20071;-79
2021/11/16 07:40:45;;;;;;;49.65;28.60;;;;;;;6.01;78.46;98511.31;10142628;29;20049;-80
2021/11/16 07:46:06;;;;;;;50.85;28.35;;;;;;;6.19;78.04;98498.50;10088098;29;20053;-79
2021/11/16 07:51:28;;;;;;;60.55;29.92;;;;;;;6.20;77.68;98491.66;10124399;29;20057;-81
2021/11/16 07:56:49;;;;;;;50.05;27.92;;;;;;;6.24;77.68;98507.91;10121563;29;20084;-78
2021/11/16 08:02:21;;;;;;;43.67;26.92;;;;;;;6.36;77.63;98497.25;10118628;29;20061;-83
2021/11/16 08:13:59;;;;;;;43.78;26.48;;;;;;;6.63;76.87;98486.63;10171974;29;20052;-82
2021/11/16 08:19:31;;;;;;;40.25;25.45;;;;;;;6.73;77.13;98490.34;10157131;29;20057;-83
2021/11/16 08:24:53;;;;;;;47.47;27.58;;;;;;;6.73;77.18;98490.34;10138771;29;20052;-81
2021/11/16 08:30:21;;;;;;;42.15;25.83;;;;;;;6.72;76.49;98486.84;10163846;23;20056;-80
2021/11/16 09:00:27;;;;;;;36.85;24.27;;;;;;;7.20;74.10;98480.81;10554932;23;20024;-80
2021/11/16 09:12:44;;;;;;;38.30;24.02;;;;;;;7.33;74.52;98467.47;11425966;23;20409;31
2021/11/16 09:18:12;;;;;;;37.13;24.13;;;;;;;7.41;73.89;98476.53;10096211;29;20057;-81
2021/11/16 09:23:34;;;;;;;37.97;26.40;;;;;;;7.57;73.58;98471.72;10657037;23;20116;-81
2021/11/16 09:29:05;;;;;;;39.42;25.20;;;;;;;7.59;72.40;98480.25;10492906;23;20065;-81
2021/11/16 09:34:28;;;;;;;38.10;25.00;;;;;;;7.66;71.82;98465.59;10620595;23;20107;-81
2021/11/16 09:39:58;;;;;;;37.92;25.08;;;;;;;7.87;72.19;98467.41;10892032;23;20060;-79
2021/11/16 09:45:25;;;;;;;37.42;23.27;;;;;;;8.25;71.56;98450.63;10152432;29;20048;-80
2021/11/16 09:50:46;;;;;;;37.85;24.92;;;;;;;8.22;71.24;98455.28;10165287;29;20103;-80
2021/11/16 09:56:39;;;;;;;38.78;24.10;;;;;;;8.06;70.16;98448.28;10168502;29;20052;-81
2021/11/16 10:02:01;;;;;;;35.65;23.30;;;;;;;8.04;70.89;98448.09;10095597;29;20061;-79
2021/11/16 10:07:22;;;;;;;35.33;23.90;;;;;;;8.00;71.19;98444.94;10100155;29;20060;-79
2021/11/16 10:12:46;;;;;;;39.50;24.38;;;;;;;8.02;71.04;98442.38;10056584;29;20444;-79
2021/11/16 10:18:07;;;;;;;40.07;25.80;;;;;;;8.23;70.33;98431.72;10068935;29;20578;-78
2021/11/16 10:23:33;;;;;;;37.40;23.70;;;;;;;8.72;70.10;98429.63;10068813;29;20132;-79
2021/11/16 10:28:55;;;;;;;37.55;25.58;;;;;;;8.86;68.51;98426.00;10067029;29;20041;-79
2021/11/16 10:34:17;;;;;;;34.85;23.50;;;;;;;8.98;69.50;98425.56;10160452;29;20067;-79
2021/11/16 10:39:37;;;;;;;36.17;24.13;;;;;;;9.30;68.26;98413.59;10161685;29;20058;-80
2021/11/16 10:45:00;;;;;;;36.15;24.17;;;;;;;9.43;66.03;98413.28;10135459;29;20095;-79
2021/11/16 10:50:23;;;;;;;36.75;24.05;;;;;;;9.65;66.30;98409.56;10147923;29;20044;-80
2021/11/16 10:55:48;;;;;;;38.72;24.58;;;;;;;9.62;66.13;98399.53;10136415;29;20507;-79
2021/11/16 11:01:10;;;;;;;36.10;23.50;;;;;;;9.60;66.73;98391.03;10161204;29;20131;-79
2021/11/16 11:06:35;;;;;;;33.40;23.83;;;;;;;9.88;65.25;98375.84;10161458;29;20048;-80
2021/11/16 11:11:56;;;;;;;33.28;24.25;;;;;;;10.20;63.69;98368.56;10148388;29;20052;-80
2021/11/16 11:17:16;;;;;;;35.90;23.42;;;;;;;10.64;62.97;98362.22;10148108;29;20597;-79
2021/11/16 11:22:41;;;;;;;33.53;24.02;;;;;;;11.07;62.28;98358.56;10134789;29;20040;-80
2021/11/16 11:28:11;;;;;;;33.25;23.35;;;;;;;11.81;62.76;98363.97;10149094;29;20055;-80
2021/11/16 11:33:46;;;;;;;35.75;24.20;;;;;;;11.49;59.42;98365.84;10150180;29;20048;-79
2021/11/16 11:39:19;;;;;;;31.58;22.73;;;;;;;10.99;59.75;98357.94;10147890;29;20056;-79
2021/11/16 11:44:57;;;;;;;31.60;22.67;;;;;;;10.49;60.35;98347.16;10147803;29;20048;-80
2021/11/16 11:50:39;;;;;;;31.70;22.05;;;;;;;10.35;61.80;98346.09;10154911;29;20044;-79
2021/11/16 11:56:11;;;;;;;27.75;21.27;;;;;;;10.32;61.97;98344.44;10166051;29;20052;-79
2021/11/16 12:01:32;;;;;;;31.25;23.15;;;;;;;10.36;62.00;98327.28;10156210;29;20048;-79
2021/11/16 12:06:53;;;;;;;33.78;22.33;;;;;;;10.48;61.81;98328.22;10166560;29;20468;-80
2021/11/16 12:12:14;;;;;;;37.33;23.48;;;;;;;10.54;60.95;98321.06;10154753;29;20055;-80
2021/11/16 12:17:49;;;;;;;30.10;22.17;;;;;;;10.65;61.48;98305.06;10154323;29;20103;-80
2021/11/16 12:23:12;;;;;;;29.98;22.95;;;;;;;10.77;62.16;98309.53;10155938;29;20551;-80
2021/11/16 12:28:33;;;;;;;34.58;24.45;;;;;;;10.81;61.34;98293.09;10167139;29;20048;-80
2021/11/16 12:33:54;;;;;;;30.30;22.70;;;;;;;10.60;61.07;98287.25;10153653;29;20535;-79
2021/11/16 12:39:19;;;;;;;31.75;22.95;;;;;;;10.37;61.84;98281.31;10153427;29;20067;-79
2021/11/16 12:44:45;;;;;;;32.88;22.83;;;;;;;10.16;61.97;98287.38;10166763;29;20451;-80
2021/11/16 12:50:06;;;;;;;38.00;25.33;;;;;;;9.92;61.45;98280.59;10154159;29;20052;-78
2021/11/16 12:55:30;;;;;;;32.72;22.77;;;;;;;9.81;62.28;98278.34;10172645;29;20403;-78
2021/11/16 13:00:52;;;;;;;33.75;24.17;;;;;;;9.71;62.21;98281.06;10152141;29;20044;-79
2021/11/16 13:06:14;;;;;;;37.45;23.73;;;;;;;9.63;62.29;98278.38;10153579;29;20052;-80
2021/11/16 13:11:48;;;;;;;34.38;22.92;;;;;;;9.60;62.96;98281.59;10153068;29;20052;-79
2021/11/16 13:17:40;;;;;;;37.15;23.30;;;;;;;9.72;62.78;98280.50;10141704;29;20055;-79
2021/11/16 13:23:22;;;;;;;34.50;22.08;;;;;;;9.82;60.97;98277.03;10173431;29;20060;-80
2021/11/16 13:34:55;;;;;;;31.52;20.00;;;;;;;9.55;60.69;98265.84;10156671;29;20055;-78
2021/11/16 13:40:22;;;;;;;25.52;18.08;;;;;;;9.40;61.15;98250.06;10161751;29;20060;-79
2021/11/16 13:45:43;;;;;;;24.38;18.73;;;;;;;9.29;60.57;98259.66;10151277;29;20047;-78
2021/11/16 13:51:04;;;;;;;28.38;20.10;;;;;;;9.23;61.12;98256.38;10150493;29;20051;-77
2021/11/16 13:56:25;;;;;;;26.33;18.45;;;;;;;9.30;61.35;98255.56;10150344;29;20476;-77
2021/11/16 14:01:52;;;;;;;29.40;19.42;;;;;;;9.31;61.51;98253.50;10150760;29;20044;-75
2021/11/16 14:07:19;;;;;;;28.90;18.92;;;;;;;9.32;61.79;98254.97;10147148;29;20055;-75
2021/11/16 14:12:42;;;;;;;28.08;20.73;;;;;;;9.26;61.52;98248.91;10150124;29;20048;-76
2021/11/16 14:18:14;;;;;;;30.48;20.08;;;;;;;9.26;61.29;98235.72;10136605;29;20103;-76
2021/11/16 14:23:36;;;;;;;29.83;19.55;;;;;;;9.15;61.31;98236.22;10150622;29;20052;-75
2021/11/16 14:28:57;;;;;;;28.92;18.50;;;;;;;9.10;62.05;98234.44;10149367;29;20040;-76
2021/11/16 14:34:23;;;;;;;28.02;20.10;;;;;;;9.07;61.87;98230.75;10148895;29;20052;-76
2021/11/16 14:39:45;;;;;;;26.92;19.17;;;;;;;9.04;62.02;98231.13;10148623;29;20064;-76
2021/11/16 14:45:06;;;;;;;30.27;20.63;;;;;;;8.97;62.20;98229.16;10161503;29;20068;-77
2021/11/16 14:50:35;;;;;;;28.40;19.67;;;;;;;8.96;62.17;98224.91;10148856;29;20063;-76
2021/11/16 14:55:56;;;;;;;26.45;19.52;;;;;;;8.91;62.16;98225.91;10150481;29;20048;-77
2021/11/16 15:01:19;;;;;;;29.15;20.55;;;;;;;8.83;62.76;98217.63;10148139;29;20040;-76
2021/11/16 15:06:42;;;;;;;29.23;18.60;;;;;;;8.60;62.48;98207.47;10148253;29;20068;-76
2021/11/16 15:12:13;;;;;;;29.10;19.45;;;;;;;8.38;62.86;98202.06;10147950;29;20056;-76
2021/11/16 15:17:46;;;;;;;32.83;19.23;;;;;;;8.20;63.07;98215.94;10148440;29;20048;-76
2021/11/16 15:23:09;;;;;;;29.63;19.30;;;;;;;8.19;62.94;98203.31;10146831;29;20040;-76
2021/11/16 15:28:38;;;;;;;30.10;20.47;;;;;;;8.23;63.42;98203.66;10160403;29;20048;-77
2021/11/16 15:34:02;;;;;;;29.75;20.15;;;;;;;8.21;63.11;98200.72;10147566;29;20055;-76
2021/11/16 15:39:23;;;;;;;28.27;19.88;;;;;;;8.16;63.54;98201.66;10147389;29;20115;-76
2021/11/16 15:45:10;;;;;;;31.45;20.33;;;;;;;8.17;63.64;98194.78;10147349;29;20552;-76
2021/11/16 16:01:36;;;;;;;32.72;20.30;;;;;;;8.07;63.22;98193.22;10152368;29;20050;-77
2021/11/16 16:07:08;;;;;;;29.98;21.10;;;;;;;8.01;63.10;98199.03;10160212;29;20043;-78
2021/11/16 16:12:29;;;;;;;41.97;27.98;;;;;;;7.93;63.66;98192.78;10146562;29;20051;-76
2021/11/16 16:17:49;;;;;;;41.67;26.85;;;;;;;7.71;63.87;98189.56;10146765;29;20044;-76
2021/11/16 16:23:14;;;;;;;41.78;27.52;;;;;;;7.53;64.28;98196.34;10146615;29;20048;-77
2021/11/16 16:28:56;;;;;;;39.65;27.67;;;;;;;7.37;64.36;98192.16;10134559;29;20059;-75
2021/11/16 16:34:21;;;;;;;43.72;28.33;;;;;;;7.35;64.80;98200.31;10138096;29;20051;-77
2021/11/16 16:39:42;;;;;;;39.35;26.65;;;;;;;7.29;64.79;98194.22;10126779;29;20526;-76
2021/11/16 16:45:04;;;;;;;51.67;31.95;;;;;;;7.15;65.01;98190.97;10165745;29;20052;-76
2021/11/16 16:50:25;;;;;;;35.15;23.20;;;;;;;7.01;65.44;98187.66;10139870;29;20055;-78
2021/11/16 16:55:46;;;;;;;32.88;23.20;;;;;;;6.94;65.53;98187.69;10152492;29;20052;-79
2021/11/16 17:01:07;;;;;;;32.10;22.90;;;;;;;6.89;65.63;98192.16;10152439;29;20052;-79
2021/11/16 17:06:28;;;;;;;30.58;21.15;;;;;;;6.96;65.78;98185.84;10152875;29;20108;-79
2021/11/16 17:11:49;;;;;;;28.65;20.23;;;;;;;7.01;65.72;98181.38;10152087;29;20377;-77
2021/11/16 17:17:11;;;;;;;34.83;24.05;;;;;;;7.07;65.92;98174.31;10138747;29;20044;-77
2021/11/16 17:22:32;;;;;;;31.40;21.65;;;;;;;7.14;66.07;98173.56;10138515;29;20044;-78
2021/11/16 17:27:52;;;;;;;33.65;23.58;;;;;;;7.21;66.04;98171.31;10138354;29;20044;-78
2021/11/16 17:33:14;;;;;;;39.05;25.13;;;;;;;7.31;65.97;98166.63;10151025;29;20048;-76
2021/11/16 17:38:35;;;;;;;33.83;23.15;;;;;;;7.38;66.10;98163.81;10150968;29;20056;-79
2021/11/16 17:43:56;;;;;;;37.15;24.67;;;;;;;7.49;66.03;98162.66;10136917;29;20052;-76
2021/11/16 17:49:17;;;;;;;39.22;26.17;;;;;;;7.55;66.21;98149.28;10137223;29;20051;-76
2021/11/16 17:54:39;;;;;;;40.38;25.70;;;;;;;7.61;66.35;98152.56;10149833;29;20052;-78
2021/11/16 18:00:00;;;;;;;38.55;24.77;;;;;;;7.64;66.30;98151.44;10137078;29;20040;-77
2021/11/16 18:10:54;;;;;;;33.53;22.85;;;;;;;7.67;66.02;98141.25;10176676;29;20419;-76
2021/11/16 18:16:15;;;;;;;32.90;22.70;;;;;;;7.67;66.46;98144.75;10149774;29;20141;-76
2021/11/16 18:21:36;;;;;;;37.30;23.25;;;;;;;7.73;66.17;98148.06;10148973;29;20423;-77
2021/11/16 18:26:59;;;;;;;35.08;24.42;;;;;;;7.79;66.29;98144.31;10161828;29;20044;-78
2021/11/16 18:32:19;;;;;;;35.20;23.85;;;;;;;7.79;66.49;98147.81;10149176;29;20048;-76
2021/11/16 18:37:41;;;;;;;40.15;25.90;;;;;;;7.75;66.50;98142.66;10135564;29;20055;-77
2021/11/16 18:43:15;;;;;;;32.75;21.85;;;;;;;7.73;66.63;98131.38;10148097;29;20051;-78
2021/11/16 18:48:43;;;;;;;31.52;21.15;;;;;;;7.71;66.63;98128.41;10149782;29;20059;-79
2021/11/16 18:54:05;;;;;;;35.92;23.83;;;;;;;7.63;66.42;98130.53;10137592;29;20048;-79
2021/11/16 18:59:29;;;;;;;30.70;21.48;;;;;;;7.52;66.33;98125.41;10146961;29;20051;-79
2021/11/16 19:04:50;;;;;;;26.92;18.70;;;;;;;7.40;66.41;98125.09;10147742;29;20051;-79
2021/11/16 19:10:11;;;;;;;30.92;20.65;;;;;;;7.30;66.05;98124.25;10147590;29;20044;-79
2021/11/16 19:15:32;;;;;;;36.05;20.55;;;;;;;7.22;66.64;98133.91;10147661;29;20104;-78
2021/11/16 19:20:54;;;;;;;34.72;24.17;;;;;;;7.05;67.67;98132.53;10160466;29;20052;-80
2021/11/16 19:26:14;;;;;;;36.85;24.73;;;;;;;6.94;67.76;98135.69;10147765;29;20483;-77
2021/11/16 19:31:38;;;;;;;36.97;25.60;;;;;;;6.86;67.99;98143.31;10147324;29;20056;-77
2021/11/16 19:37:09;;;;;;;39.38;24.52;;;;;;;6.79;68.09;98132.97;10147049;29;20519;-79
2021/11/16 19:42:32;;;;;;;39.97;25.33;;;;;;;6.78;68.09;98137.06;10149436;29;20679;-79
2021/11/16 19:47:53;;;;;;;36.13;23.25;;;;;;;6.75;68.01;98130.56;10134202;29;20048;-78
2021/11/16 19:53:14;;;;;;;39.20;24.15;;;;;;;6.67;68.12;98131.91;10133761;29;20075;-78
2021/11/16 19:58:34;;;;;;;38.88;24.35;;;;;;;6.57;68.42;98145.63;10146837;29;20052;-77
2021/11/16 20:03:56;;;;;;;34.03;21.52;;;;;;;6.42;68.19;98151.94;10135933;29;20044;-78
2021/11/16 20:09:17;;;;;;;32.08;21.23;;;;;;;6.35;67.77;98151.94;10150467;29;20048;-77
2021/11/16 20:14:38;;;;;;;30.15;20.67;;;;;;;6.27;67.56;98158.25;10154241;29;20048;-78
2021/11/16 20:20:00;;;;;;;31.42;20.52;;;;;;;6.16;67.96;98158.59;10140941;29;20044;-78
2021/11/16 20:25:22;;;;;;;32.00;19.83;;;;;;;6.06;68.09;98149.38;10153747;29;20052;-79
2021/11/16 20:30:52;;;;;;;29.88;19.75;;;;;;;6.05;68.32;98161.00;10140811;29;20095;-79
2021/11/16 20:36:14;;;;;;;33.80;20.02;;;;;;;6.03;68.50;98161.56;10155639;29;20048;-78
2021/11/16 20:59:12;;;;;;;33.50;19.98;;;;;;;5.96;68.36;98157.50;10156854;29;20164;-78
